sensor_id;sensor_type;location;lat;lon;timestamp;P1;durP1;ratioP1;P2;durP2;ratioP2
41275;SDS011;27010;47.718;12.912;2022-11-04T00:01:11;4.07;;;1.70;;
41275;SDS011;27010;47.718;12.912;2022-11-04T00:04:13;3.13;;;1.67;;
41275;SDS011;27010;47.718;12.912;2022-11-04T00:07:16;3.50;;;1.57;;
41275;SDS011;27010;47.718;12.912;2022-11-04T00:10:37;4.57;;;1.70;;
41275;SDS011;27010;47.718;12.912;2022-11-04T00:13:58;2.43;;;1.90;;
41275;SDS011;27010;47.718;12.912;2022-11-04T00:17:00;2.63;;;1.50;;
41275;SDS011;27010;47.718;12.912;2022-11-04T00:20:22;3.70;;;1.70;;
41275;SDS011;27010;47.718;12.912;2022-11-04T00:24:03;3.30;;;1.60;;
41275;SDS011;27010;47.718;12.912;2022-11-04T00:27:24;2.97;;;1.83;;
41275;SDS011;27010;47.718;12.912;2022-11-04T00:30:44;3.90;;;1.90;;
41275;SDS011;27010;47.718;12.912;2022-11-04T00:33:47;3.10;;;1.77;;
41275;SDS011;27010;47.718;12.912;2022-11-04T00:36:49;1.90;;;1.50;;
41275;SDS011;27010;47.718;12.912;2022-11-04T00:39:51;2.27;;;1.90;;
41275;SDS011;27010;47.718;12.912;2022-11-04T00:42:53;1.97;;;1.63;;
41275;SDS011;27010;47.718;12.912;2022-11-04T00:45:55;5.07;;;1.43;;
41275;SDS011;27010;47.718;12.912;2022-11-04T00:48:57;4.87;;;1.70;;
41275;SDS011;27010;47.718;12.912;2022-11-04T00:51:59;2.90;;;1.80;;
41275;SDS011;27010;47.718;12.912;2022-11-04T00:55:01;2.87;;;1.80;;
41275;SDS011;27010;47.718;12.912;2022-11-04T00:58:04;2.00;;;1.77;;
41275;SDS011;27010;47.718;12.912;2022-11-04T01:01:09;3.77;;;1.60;;
41275;SDS011;27010;47.718;12.912;2022-11-04T01:04:13;5.90;;;1.90;;
41275;SDS011;27010;47.718;12.912;2022-11-04T01:07:15;2.10;;;1.17;;
41275;SDS011;27010;47.718;12.912;2022-11-04T01:10:17;2.43;;;1.33;;
41275;SDS011;27010;47.718;12.912;2022-11-04T01:13:19;4.97;;;1.83;;
41275;SDS011;27010;47.718;12.912;2022-11-04T01:16:21;2.93;;;1.80;;
41275;SDS011;27010;47.718;12.912;2022-11-04T01:19:23;6.60;;;2.13;;
41275;SDS011;27010;47.718;12.912;2022-11-04T01:22:27;4.83;;;1.90;;
41275;SDS011;27010;47.718;12.912;2022-11-04T01:25:29;4.23;;;2.27;;
41275;SDS011;27010;47.718;12.912;2022-11-04T01:28:31;3.10;;;2.17;;
41275;SDS011;27010;47.718;12.912;2022-11-04T01:31:33;3.40;;;2.47;;
41275;SDS011;27010;47.718;12.912;2022-11-04T01:34:35;3.27;;;2.97;;
41275;SDS011;27010;47.718;12.912;2022-11-04T01:37:47;5.40;;;3.27;;
41275;SDS011;27010;47.718;12.912;2022-11-04T01:40:49;3.30;;;2.67;;
41275;SDS011;27010;47.718;12.912;2022-11-04T01:43:55;4.63;;;3.07;;
41275;SDS011;27010;47.718;12.912;2022-11-04T01:46:58;5.40;;;3.27;;
41275;SDS011;27010;47.718;12.912;2022-11-04T01:50:42;4.10;;;2.63;;
41275;SDS011;27010;47.718;12.912;2022-11-04T01:53:27;2.73;;;2.20;;
41275;SDS011;27010;47.718;12.912;2022-11-04T01:56:30;3.13;;;2.23;;
41275;SDS011;27010;47.718;12.912;2022-11-04T01:59:34;2.10;;;1.90;;
41275;SDS011;27010;47.718;12.912;2022-11-04T02:02:39;2.63;;;2.37;;
41275;SDS011;27010;47.718;12.912;2022-11-04T02:05:47;1.57;;;1.30;;
41275;SDS011;27010;47.718;12.912;2022-11-04T02:08:49;2.53;;;1.40;;
41275;SDS011;27010;47.718;12.912;2022-11-04T02:11:51;2.30;;;1.20;;
41275;SDS011;27010;47.718;12.912;2022-11-04T02:15:11;1.47;;;0.83;;
41275;SDS011;27010;47.718;12.912;2022-11-04T02:44:50;0.57;;;0.53;;
41275;SDS011;27010;47.718;12.912;2022-11-04T02:47:59;2.33;;;1.20;;
41275;SDS011;27010;47.718;12.912;2022-11-04T02:51:21;0.97;;;0.50;;
41275;SDS011;27010;47.718;12.912;2022-11-04T02:57:48;1.33;;;0.50;;
41275;SDS011;27010;47.718;12.912;2022-11-04T03:00:51;0.73;;;0.63;;
41275;SDS011;27010;47.718;12.912;2022-11-04T03:03:59;1.43;;;1.33;;
41275;SDS011;27010;47.718;12.912;2022-11-04T03:07:04;4.10;;;0.77;;
41275;SDS011;27010;47.718;12.912;2022-11-04T03:10:17;0.60;;;0.60;;
41275;SDS011;27010;47.718;12.912;2022-11-04T03:13:27;1.27;;;0.50;;
41275;SDS011;27010;47.718;12.912;2022-11-04T03:16:41;3.03;;;0.60;;
41275;SDS011;27010;47.718;12.912;2022-11-04T03:19:56;1.10;;;0.80;;
41275;SDS011;27010;47.718;12.912;2022-11-04T03:23:00;1.10;;;0.80;;
41275;SDS011;27010;47.718;12.912;2022-11-04T03:26:15;0.90;;;0.70;;
41275;SDS011;27010;47.718;12.912;2022-11-04T03:29:34;0.80;;;0.77;;
41275;SDS011;27010;47.718;12.912;2022-11-04T03:32:43;0.80;;;0.80;;
41275;SDS011;27010;47.718;12.912;2022-11-04T03:35:59;1.27;;;0.40;;
41275;SDS011;27010;47.718;12.912;2022-11-04T03:39:01;1.27;;;1.10;;
41275;SDS011;27010;47.718;12.912;2022-11-04T03:42:08;0.70;;;0.70;;
41275;SDS011;27010;47.718;12.912;2022-11-04T03:45:23;0.80;;;0.80;;
41275;SDS011;27010;47.718;12.912;2022-11-04T03:48:26;1.13;;;0.80;;
41275;SDS011;27010;47.718;12.912;2022-11-04T03:51:28;0.60;;;0.60;;
41275;SDS011;27010;47.718;12.912;2022-11-04T03:54:30;0.60;;;0.60;;
41275;SDS011;27010;47.718;12.912;2022-11-04T03:57:47;1.27;;;0.73;;
41275;SDS011;27010;47.718;12.912;2022-11-04T04:11:17;1.73;;;0.90;;
41275;SDS011;27010;47.718;12.912;2022-11-04T04:17:42;1.07;;;0.80;;
41275;SDS011;27010;47.718;12.912;2022-11-04T04:20:56;0.97;;;0.70;;
41275;SDS011;27010;47.718;12.912;2022-11-04T04:24:01;1.50;;;1.07;;
41275;SDS011;27010;47.718;12.912;2022-11-04T04:27:24;1.70;;;0.90;;
41275;SDS011;27010;47.718;12.912;2022-11-04T04:30:33;1.30;;;1.10;;
41275;SDS011;27010;47.718;12.912;2022-11-04T04:33:35;1.77;;;0.80;;
41275;SDS011;27010;47.718;12.912;2022-11-04T04:36:46;3.40;;;1.03;;
41275;SDS011;27010;47.718;12.912;2022-11-04T04:39:57;1.50;;;0.77;;
41275;SDS011;27010;47.718;12.912;2022-11-04T04:43:32;0.90;;;0.70;;
41275;SDS011;27010;47.718;12.912;2022-11-04T04:46:52;3.23;;;0.80;;
41275;SDS011;27010;47.718;12.912;2022-11-04T04:49:56;1.30;;;0.77;;
41275;SDS011;27010;47.718;12.912;2022-11-04T04:53:45;0.83;;;0.60;;
41275;SDS011;27010;47.718;12.912;2022-11-04T04:56:31;1.47;;;0.90;;
41275;SDS011;27010;47.718;12.912;2022-11-04T04:59:37;1.70;;;0.90;;
41275;SDS011;27010;47.718;12.912;2022-11-04T05:02:39;1.03;;;0.70;;
41275;SDS011;27010;47.718;12.912;2022-11-04T05:05:41;1.07;;;0.80;;
41275;SDS011;27010;47.718;12.912;2022-11-04T05:08:46;1.57;;;0.73;;
41275;SDS011;27010;47.718;12.912;2022-11-04T05:11:49;1.33;;;0.73;;
41275;SDS011;27010;47.718;12.912;2022-11-04T05:14:51;0.93;;;0.80;;
41275;SDS011;27010;47.718;12.912;2022-11-04T05:17:53;3.97;;;1.00;;
41275;SDS011;27010;47.718;12.912;2022-11-04T05:21:01;1.60;;;0.70;;
41275;SDS011;27010;47.718;12.912;2022-11-04T05:24:10;3.17;;;0.80;;
41275;SDS011;27010;47.718;12.912;2022-11-04T05:27:12;1.00;;;0.67;;
41275;SDS011;27010;47.718;12.912;2022-11-04T05:30:14;1.73;;;0.83;;
41275;SDS011;27010;47.718;12.912;2022-11-04T05:33:16;0.93;;;0.70;;
41275;SDS011;27010;47.718;12.912;2022-11-04T05:36:18;0.97;;;0.63;;
41275;SDS011;27010;47.718;12.912;2022-11-04T05:39:20;1.90;;;0.80;;
41275;SDS011;27010;47.718;12.912;2022-11-04T05:42:22;1.00;;;0.90;;
41275;SDS011;27010;47.718;12.912;2022-11-04T05:45:25;1.73;;;0.90;;
41275;SDS011;27010;47.718;12.912;2022-11-04T05:48:27;2.90;;;0.77;;
41275;SDS011;27010;47.718;12.912;2022-11-04T05:51:30;1.20;;;0.57;;
41275;SDS011;27010;47.718;12.912;2022-11-04T05:54:33;1.10;;;0.50;;
41275;SDS011;27010;47.718;12.912;2022-11-04T05:57:37;2.00;;;0.47;;
41275;SDS011;27010;47.718;12.912;2022-11-04T06:00:39;4.47;;;0.80;;
41275;SDS011;27010;47.718;12.912;2022-11-04T06:03:41;5.07;;;0.70;;
41275;SDS011;27010;47.718;12.912;2022-11-04T06:06:43;1.17;;;0.60;;
41275;SDS011;27010;47.718;12.912;2022-11-04T06:09:46;0.90;;;0.50;;
41275;SDS011;27010;47.718;12.912;2022-11-04T06:12:48;1.07;;;0.70;;
41275;SDS011;27010;47.718;12.912;2022-11-04T06:15:50;0.80;;;0.70;;
41275;SDS011;27010;47.718;12.912;2022-11-04T06:18:52;3.33;;;0.53;;
41275;SDS011;27010;47.718;12.912;2022-11-04T06:21:54;1.50;;;0.60;;
41275;SDS011;27010;47.718;12.912;2022-11-04T06:24:57;1.00;;;0.60;;
41275;SDS011;27010;47.718;12.912;2022-11-04T06:27:59;1.73;;;0.80;;
41275;SDS011;27010;47.718;12.912;2022-11-04T06:31:01;2.30;;;0.50;;
41275;SDS011;27010;47.718;12.912;2022-11-04T06:34:04;2.37;;;0.67;;
41275;SDS011;27010;47.718;12.912;2022-11-04T06:37:07;2.17;;;0.67;;
41275;SDS011;27010;47.718;12.912;2022-11-04T06:40:10;1.50;;;0.50;;
41275;SDS011;27010;47.718;12.912;2022-11-04T06:43:13;0.80;;;0.67;;
41275;SDS011;27010;47.718;12.912;2022-11-04T06:49:44;1.43;;;0.50;;
41275;SDS011;27010;47.718;12.912;2022-11-04T06:52:46;0.57;;;0.53;;
41275;SDS011;27010;47.718;12.912;2022-11-04T06:55:47;1.93;;;0.40;;
41275;SDS011;27010;47.718;12.912;2022-11-04T06:58:50;1.70;;;0.53;;
41275;SDS011;27010;47.718;12.912;2022-11-04T07:01:53;1.10;;;0.63;;
41275;SDS011;27010;47.718;12.912;2022-11-04T07:04:56;0.80;;;0.40;;
41275;SDS011;27010;47.718;12.912;2022-11-04T07:08:03;0.77;;;0.60;;
41275;SDS011;27010;47.718;12.912;2022-11-04T07:11:09;2.00;;;0.60;;
41275;SDS011;27010;47.718;12.912;2022-11-04T07:14:11;2.13;;;0.80;;
41275;SDS011;27010;47.718;12.912;2022-11-04T07:17:13;0.57;;;0.47;;
41275;SDS011;27010;47.718;12.912;2022-11-04T07:20:15;0.77;;;0.50;;
41275;SDS011;27010;47.718;12.912;2022-11-04T07:23:17;0.70;;;0.43;;
41275;SDS011;27010;47.718;12.912;2022-11-04T07:26:19;0.97;;;0.60;;
41275;SDS011;27010;47.718;12.912;2022-11-04T07:29:22;0.90;;;0.67;;
41275;SDS011;27010;47.718;12.912;2022-11-04T07:32:26;0.60;;;0.47;;
41275;SDS011;27010;47.718;12.912;2022-11-04T07:35:31;2.20;;;1.27;;
41275;SDS011;27010;47.718;12.912;2022-11-04T07:38:33;0.83;;;0.63;;
41275;SDS011;27010;47.718;12.912;2022-11-04T07:41:35;0.97;;;0.60;;
41275;SDS011;27010;47.718;12.912;2022-11-04T07:44:37;1.57;;;0.50;;
41275;SDS011;27010;47.718;12.912;2022-11-04T07:47:39;0.87;;;0.63;;
41275;SDS011;27010;47.718;12.912;2022-11-04T07:50:41;1.17;;;0.70;;
41275;SDS011;27010;47.718;12.912;2022-11-04T07:53:43;2.83;;;0.50;;
41275;SDS011;27010;47.718;12.912;2022-11-04T07:56:45;1.73;;;0.50;;
41275;SDS011;27010;47.718;12.912;2022-11-04T07:59:47;1.20;;;0.60;;
41275;SDS011;27010;47.718;12.912;2022-11-04T08:02:49;1.50;;;0.60;;
41275;SDS011;27010;47.718;12.912;2022-11-04T08:05:55;1.90;;;0.50;;
41275;SDS011;27010;47.718;12.912;2022-11-04T08:08:58;1.43;;;0.50;;
41275;SDS011;27010;47.718;12.912;2022-11-04T08:12:00;1.67;;;0.70;;
41275;SDS011;27010;47.718;12.912;2022-11-04T08:15:02;1.33;;;0.60;;
41275;SDS011;27010;47.718;12.912;2022-11-04T08:18:05;2.50;;;0.80;;
41275;SDS011;27010;47.718;12.912;2022-11-04T08:21:07;2.00;;;0.60;;
41275;SDS011;27010;47.718;12.912;2022-11-04T08:24:10;0.53;;;0.43;;
41275;SDS011;27010;47.718;12.912;2022-11-04T08:27:12;0.97;;;0.40;;
41275;SDS011;27010;47.718;12.912;2022-11-04T08:30:14;4.07;;;0.40;;
41275;SDS011;27010;47.718;12.912;2022-11-04T08:33:16;1.20;;;0.50;;
41275;SDS011;27010;47.718;12.912;2022-11-04T08:36:20;0.90;;;0.50;;
41275;SDS011;27010;47.718;12.912;2022-11-04T08:39:29;0.90;;;0.40;;
41275;SDS011;27010;47.718;12.912;2022-11-04T08:42:32;1.10;;;0.40;;
41275;SDS011;27010;47.718;12.912;2022-11-04T08:45:44;0.53;;;0.40;;
41275;SDS011;27010;47.718;12.912;2022-11-04T08:48:47;3.73;;;0.53;;
41275;SDS011;27010;47.718;12.912;2022-11-04T08:51:50;1.47;;;0.63;;
41275;SDS011;27010;47.718;12.912;2022-11-04T08:54:57;1.00;;;0.60;;
41275;SDS011;27010;47.718;12.912;2022-11-04T08:58:00;0.53;;;0.50;;
41275;SDS011;27010;47.718;12.912;2022-11-04T09:01:04;0.70;;;0.50;;
41275;SDS011;27010;47.718;12.912;2022-11-04T09:04:07;1.00;;;0.50;;
41275;SDS011;27010;47.718;12.912;2022-11-04T09:07:13;1.47;;;0.50;;
41275;SDS011;27010;47.718;12.912;2022-11-04T09:10:15;1.13;;;0.60;;
41275;SDS011;27010;47.718;12.912;2022-11-04T09:13:18;0.70;;;0.70;;
41275;SDS011;27010;47.718;12.912;2022-11-04T09:16:20;0.97;;;0.70;;
41275;SDS011;27010;47.718;12.912;2022-11-04T09:19:22;0.80;;;0.60;;
41275;SDS011;27010;47.718;12.912;2022-11-04T09:22:24;1.23;;;0.80;;
41275;SDS011;27010;47.718;12.912;2022-11-04T09:25:28;1.53;;;0.70;;
41275;SDS011;27010;47.718;12.912;2022-11-04T09:28:30;1.40;;;0.80;;
41275;SDS011;27010;47.718;12.912;2022-11-04T09:31:33;2.00;;;0.63;;
41275;SDS011;27010;47.718;12.912;2022-11-04T09:34:35;1.60;;;1.00;;
41275;SDS011;27010;47.718;12.912;2022-11-04T09:37:37;1.33;;;0.77;;
41275;SDS011;27010;47.718;12.912;2022-11-04T09:40:39;0.90;;;0.50;;
41275;SDS011;27010;47.718;12.912;2022-11-04T09:43:45;1.37;;;0.70;;
41275;SDS011;27010;47.718;12.912;2022-11-04T09:46:59;0.77;;;0.70;;
41275;SDS011;27010;47.718;12.912;2022-11-04T09:50:02;0.63;;;0.50;;
41275;SDS011;27010;47.718;12.912;2022-11-04T09:53:51;1.23;;;0.50;;
41275;SDS011;27010;47.718;12.912;2022-11-04T09:57:03;1.63;;;0.60;;
41275;SDS011;27010;47.718;12.912;2022-11-04T10:00:05;0.70;;;0.33;;
41275;SDS011;27010;47.718;12.912;2022-11-04T10:03:18;0.50;;;0.43;;
41275;SDS011;27010;47.718;12.912;2022-11-04T10:30:15;1.23;;;0.80;;
41275;SDS011;27010;47.718;12.912;2022-11-04T10:33:26;1.13;;;0.80;;
41275;SDS011;27010;47.718;12.912;2022-11-04T10:36:31;0.90;;;0.60;;
41275;SDS011;27010;47.718;12.912;2022-11-04T10:39:34;1.83;;;0.50;;
41275;SDS011;27010;47.718;12.912;2022-11-04T10:42:39;1.10;;;0.60;;
41275;SDS011;27010;47.718;12.912;2022-11-04T10:48:55;3.00;;;0.70;;
41275;SDS011;27010;47.718;12.912;2022-11-04T10:52:04;1.17;;;0.40;;
41275;SDS011;27010;47.718;12.912;2022-11-04T10:55:13;1.33;;;0.80;;
41275;SDS011;27010;47.718;12.912;2022-11-04T10:58:23;1.40;;;0.90;;
41275;SDS011;27010;47.718;12.912;2022-11-04T11:01:27;1.23;;;0.80;;
41275;SDS011;27010;47.718;12.912;2022-11-04T11:04:36;0.97;;;0.60;;
41275;SDS011;27010;47.718;12.912;2022-11-04T11:07:41;0.50;;;0.40;;
41275;SDS011;27010;47.718;12.912;2022-11-04T11:10:49;0.83;;;0.60;;
41275;SDS011;27010;47.718;12.912;2022-11-04T11:13:53;1.07;;;0.80;;
41275;SDS011;27010;47.718;12.912;2022-11-04T11:16:55;2.43;;;1.43;;
41275;SDS011;27010;47.718;12.912;2022-11-04T11:20:04;1.53;;;0.97;;
41275;SDS011;27010;47.718;12.912;2022-11-04T11:26:35;2.53;;;1.13;;
41275;SDS011;27010;47.718;12.912;2022-11-04T11:29:37;0.77;;;0.50;;
41275;SDS011;27010;47.718;12.912;2022-11-04T11:32:42;0.90;;;0.60;;
41275;SDS011;27010;47.718;12.912;2022-11-04T11:36:07;1.37;;;0.80;;
41275;SDS011;27010;47.718;12.912;2022-11-04T11:39:15;2.43;;;1.07;;
41275;SDS011;27010;47.718;12.912;2022-11-04T11:42:19;2.60;;;0.90;;
41275;SDS011;27010;47.718;12.912;2022-11-04T11:45:21;3.93;;;2.20;;
41275;SDS011;27010;47.718;12.912;2022-11-04T11:48:42;4.30;;;2.70;;
41275;SDS011;27010;47.718;12.912;2022-11-04T11:51:50;1.90;;;0.70;;
41275;SDS011;27010;47.718;12.912;2022-11-04T11:54:53;1.40;;;0.80;;
41275;SDS011;27010;47.718;12.912;2022-11-04T12:09:18;0.23;;;0.20;;
41275;SDS011;27010;47.718;12.912;2022-11-04T12:12:59;0.47;;;0.30;;
41275;SDS011;27010;47.718;12.912;2022-11-04T12:16:09;1.07;;;0.40;;
41275;SDS011;27010;47.718;12.912;2022-11-04T12:19:20;0.47;;;0.27;;
41275;SDS011;27010;47.718;12.912;2022-11-04T12:22:46;0.77;;;0.50;;
41275;SDS011;27010;47.718;12.912;2022-11-04T12:26:04;0.77;;;0.37;;
41275;SDS011;27010;47.718;12.912;2022-11-04T12:35:56;0.53;;;0.40;;
41275;SDS011;27010;47.718;12.912;2022-11-04T12:39:27;1.57;;;1.10;;
41275;SDS011;27010;47.718;12.912;2022-11-04T12:56:11;1.10;;;0.80;;
41275;SDS011;27010;47.718;12.912;2022-11-04T13:06:00;3.57;;;1.83;;
41275;SDS011;27010;47.718;12.912;2022-11-04T13:09:09;2.03;;;1.00;;
41275;SDS011;27010;47.718;12.912;2022-11-04T13:12:18;3.37;;;0.77;;
41275;SDS011;27010;47.718;12.912;2022-11-04T13:15:23;2.73;;;1.30;;
41275;SDS011;27010;47.718;12.912;2022-11-04T13:18:30;0.90;;;0.57;;
41275;SDS011;27010;47.718;12.912;2022-11-04T13:21:35;0.83;;;0.60;;
41275;SDS011;27010;47.718;12.912;2022-11-04T13:24:38;0.40;;;0.30;;
41275;SDS011;27010;47.718;12.912;2022-11-04T13:27:47;0.20;;;0.20;;
41275;SDS011;27010;47.718;12.912;2022-11-04T13:37:46;0.50;;;0.40;;
41275;SDS011;27010;47.718;12.912;2022-11-04T13:41:08;0.53;;;0.50;;
41275;SDS011;27010;47.718;12.912;2022-11-04T13:47:34;0.50;;;0.40;;
41275;SDS011;27010;47.718;12.912;2022-11-04T13:50:38;0.40;;;0.40;;
41275;SDS011;27010;47.718;12.912;2022-11-04T13:53:55;0.50;;;0.33;;
41275;SDS011;27010;47.718;12.912;2022-11-04T13:57:05;0.40;;;0.40;;
41275;SDS011;27010;47.718;12.912;2022-11-04T14:09:49;0.37;;;0.30;;
41275;SDS011;27010;47.718;12.912;2022-11-04T14:12:53;0.30;;;0.20;;
41275;SDS011;27010;47.718;12.912;2022-11-04T14:22:51;0.83;;;0.70;;
41275;SDS011;27010;47.718;12.912;2022-11-04T14:26:07;0.37;;;0.30;;
41275;SDS011;27010;47.718;12.912;2022-11-04T14:29:23;0.83;;;0.30;;
41275;SDS011;27010;47.718;12.912;2022-11-04T14:32:29;1.60;;;0.50;;
41275;SDS011;27010;47.718;12.912;2022-11-04T14:35:33;2.47;;;0.50;;
41275;SDS011;27010;47.718;12.912;2022-11-04T14:38:36;0.20;;;0.20;;
41275;SDS011;27010;47.718;12.912;2022-11-04T14:44:43;0.43;;;0.40;;
41275;SDS011;27010;47.718;12.912;2022-11-04T14:47:52;0.83;;;0.60;;
41275;SDS011;27010;47.718;12.912;2022-11-04T14:50:57;4.23;;;0.50;;
41275;SDS011;27010;47.718;12.912;2022-11-04T14:54:33;0.40;;;0.40;;
41275;SDS011;27010;47.718;12.912;2022-11-04T14:57:48;0.70;;;0.33;;
41275;SDS011;27010;47.718;12.912;2022-11-04T15:00:52;0.50;;;0.47;;
41275;SDS011;27010;47.718;12.912;2022-11-04T15:03:58;0.50;;;0.33;;
41275;SDS011;27010;47.718;12.912;2022-11-04T15:07:35;2.50;;;1.70;;
41275;SDS011;27010;47.718;12.912;2022-11-04T15:10:36;0.40;;;0.40;;
41275;SDS011;27010;47.718;12.912;2022-11-04T15:13:45;0.70;;;0.50;;
41275;SDS011;27010;47.718;12.912;2022-11-04T15:16:50;3.90;;;0.80;;
41275;SDS011;27010;47.718;12.912;2022-11-04T15:19:55;1.70;;;0.93;;
41275;SDS011;27010;47.718;12.912;2022-11-04T15:22:59;0.70;;;0.57;;
41275;SDS011;27010;47.718;12.912;2022-11-04T15:26:03;1.67;;;0.90;;
41275;SDS011;27010;47.718;12.912;2022-11-04T15:29:07;1.20;;;0.70;;
41275;SDS011;27010;47.718;12.912;2022-11-04T15:32:14;0.93;;;0.80;;
41275;SDS011;27010;47.718;12.912;2022-11-04T15:35:17;0.70;;;0.50;;
41275;SDS011;27010;47.718;12.912;2022-11-04T15:38:20;1.77;;;0.70;;
41275;SDS011;27010;47.718;12.912;2022-11-04T15:41:24;3.33;;;0.90;;
41275;SDS011;27010;47.718;12.912;2022-11-04T15:44:50;1.07;;;0.60;;
41275;SDS011;27010;47.718;12.912;2022-11-04T15:51:23;1.20;;;0.70;;
41275;SDS011;27010;47.718;12.912;2022-11-04T15:54:27;1.50;;;1.10;;
41275;SDS011;27010;47.718;12.912;2022-11-04T15:57:40;22.10;;;2.43;;
41275;SDS011;27010;47.718;12.912;2022-11-04T16:00:50;3.67;;;1.10;;
41275;SDS011;27010;47.718;12.912;2022-11-04T16:03:56;2.53;;;1.00;;
41275;SDS011;27010;47.718;12.912;2022-11-04T16:07:19;2.77;;;1.77;;
41275;SDS011;27010;47.718;12.912;2022-11-04T16:10:37;1.43;;;1.10;;
41275;SDS011;27010;47.718;12.912;2022-11-04T16:13:40;1.47;;;0.70;;
41275;SDS011;27010;47.718;12.912;2022-11-04T16:16:46;1.27;;;1.00;;
41275;SDS011;27010;47.718;12.912;2022-11-04T16:19:53;1.37;;;1.10;;
41275;SDS011;27010;47.718;12.912;2022-11-04T16:22:56;1.50;;;1.00;;
41275;SDS011;27010;47.718;12.912;2022-11-04T16:26:02;0.87;;;0.80;;
41275;SDS011;27010;47.718;12.912;2022-11-04T16:29:07;1.50;;;1.10;;
41275;SDS011;27010;47.718;12.912;2022-11-04T16:32:15;1.23;;;1.10;;
41275;SDS011;27010;47.718;12.912;2022-11-04T16:35:19;1.57;;;1.00;;
41275;SDS011;27010;47.718;12.912;2022-11-04T16:38:25;1.40;;;1.03;;
41275;SDS011;27010;47.718;12.912;2022-11-04T16:41:28;1.50;;;1.17;;
41275;SDS011;27010;47.718;12.912;2022-11-04T16:44:31;1.67;;;1.50;;
41275;SDS011;27010;47.718;12.912;2022-11-04T16:47:33;1.87;;;1.63;;
41275;SDS011;27010;47.718;12.912;2022-11-04T16:50:37;2.13;;;1.73;;
41275;SDS011;27010;47.718;12.912;2022-11-04T16:53:39;1.90;;;1.70;;
41275;SDS011;27010;47.718;12.912;2022-11-04T16:56:42;2.70;;;1.93;;
41275;SDS011;27010;47.718;12.912;2022-11-04T16:59:46;2.80;;;2.40;;
41275;SDS011;27010;47.718;12.912;2022-11-04T17:02:48;3.50;;;3.20;;
41275;SDS011;27010;47.718;12.912;2022-11-04T17:05:51;7.43;;;3.47;;
41275;SDS011;27010;47.718;12.912;2022-11-04T17:08:57;5.50;;;3.67;;
41275;SDS011;27010;47.718;12.912;2022-11-04T17:11:58;2.80;;;2.33;;
41275;SDS011;27010;47.718;12.912;2022-11-04T17:15:00;3.17;;;2.87;;
41275;SDS011;27010;47.718;12.912;2022-11-04T17:18:02;3.40;;;2.77;;
41275;SDS011;27010;47.718;12.912;2022-11-04T17:21:05;4.77;;;3.60;;
41275;SDS011;27010;47.718;12.912;2022-11-04T17:24:09;4.37;;;3.13;;
41275;SDS011;27010;47.718;12.912;2022-11-04T17:27:11;3.63;;;2.80;;
41275;SDS011;27010;47.718;12.912;2022-11-04T17:30:13;4.43;;;3.23;;
41275;SDS011;27010;47.718;12.912;2022-11-04T17:33:18;4.13;;;3.30;;
41275;SDS011;27010;47.718;12.912;2022-11-04T17:36:20;4.57;;;3.63;;
41275;SDS011;27010;47.718;12.912;2022-11-04T17:39:23;3.40;;;2.90;;
41275;SDS011;27010;47.718;12.912;2022-11-04T17:42:24;5.33;;;3.37;;
41275;SDS011;27010;47.718;12.912;2022-11-04T17:45:46;2.87;;;2.37;;
41275;SDS011;27010;47.718;12.912;2022-11-04T17:49:11;5.43;;;3.90;;
41275;SDS011;27010;47.718;12.912;2022-11-04T17:52:15;5.23;;;3.87;;
41275;SDS011;27010;47.718;12.912;2022-11-04T17:55:17;5.17;;;3.73;;
41275;SDS011;27010;47.718;12.912;2022-11-04T17:58:28;4.73;;;3.77;;
41275;SDS011;27010;47.718;12.912;2022-11-04T18:01:31;6.07;;;3.50;;
41275;SDS011;27010;47.718;12.912;2022-11-04T18:04:34;5.10;;;3.57;;
41275;SDS011;27010;47.718;12.912;2022-11-04T18:07:35;5.47;;;3.77;;
41275;SDS011;27010;47.718;12.912;2022-11-04T18:10:38;3.87;;;2.97;;
41275;SDS011;27010;47.718;12.912;2022-11-04T18:13:40;5.53;;;3.70;;
41275;SDS011;27010;47.718;12.912;2022-11-04T18:16:42;5.20;;;3.50;;
41275;SDS011;27010;47.718;12.912;2022-11-04T18:19:45;2.90;;;2.60;;
41275;SDS011;27010;47.718;12.912;2022-11-04T18:22:47;3.70;;;2.60;;
41275;SDS011;27010;47.718;12.912;2022-11-04T18:25:49;4.00;;;2.70;;
41275;SDS011;27010;47.718;12.912;2022-11-04T18:28:51;2.10;;;1.77;;
41275;SDS011;27010;47.718;12.912;2022-11-04T18:31:53;2.03;;;1.70;;
41275;SDS011;27010;47.718;12.912;2022-11-04T18:34:55;1.53;;;1.43;;
41275;SDS011;27010;47.718;12.912;2022-11-04T18:37:58;2.90;;;1.27;;
41275;SDS011;27010;47.718;12.912;2022-11-04T18:41:00;3.20;;;1.97;;
41275;SDS011;27010;47.718;12.912;2022-11-04T18:44:03;2.63;;;1.60;;
41275;SDS011;27010;47.718;12.912;2022-11-04T18:47:05;2.60;;;1.90;;
41275;SDS011;27010;47.718;12.912;2022-11-04T18:50:07;1.70;;;1.57;;
41275;SDS011;27010;47.718;12.912;2022-11-04T18:53:11;3.00;;;1.37;;
41275;SDS011;27010;47.718;12.912;2022-11-04T18:56:14;2.13;;;1.57;;
41275;SDS011;27010;47.718;12.912;2022-11-04T18:59:22;1.50;;;1.30;;
41275;SDS011;27010;47.718;12.912;2022-11-04T19:02:24;2.30;;;1.83;;
41275;SDS011;27010;47.718;12.912;2022-11-04T19:05:27;2.23;;;1.60;;
41275;SDS011;27010;47.718;12.912;2022-11-04T19:08:29;9.20;;;5.00;;
41275;SDS011;27010;47.718;12.912;2022-11-04T19:11:36;5.20;;;3.30;;
41275;SDS011;27010;47.718;12.912;2022-11-04T19:14:40;2.30;;;1.50;;
41275;SDS011;27010;47.718;12.912;2022-11-04T19:17:42;1.63;;;1.37;;
41275;SDS011;27010;47.718;12.912;2022-11-04T19:20:45;1.63;;;1.43;;
41275;SDS011;27010;47.718;12.912;2022-11-04T19:23:47;2.50;;;1.87;;
41275;SDS011;27010;47.718;12.912;2022-11-04T19:26:50;5.13;;;1.47;;
41275;SDS011;27010;47.718;12.912;2022-11-04T19:29:52;2.40;;;2.20;;
41275;SDS011;27010;47.718;12.912;2022-11-04T19:32:54;4.17;;;2.47;;
41275;SDS011;27010;47.718;12.912;2022-11-04T19:35:58;3.57;;;2.77;;
41275;SDS011;27010;47.718;12.912;2022-11-04T19:39:00;4.40;;;2.53;;
41275;SDS011;27010;47.718;12.912;2022-11-04T19:42:02;2.30;;;1.90;;
41275;SDS011;27010;47.718;12.912;2022-11-04T19:45:23;1.83;;;1.43;;
41275;SDS011;27010;47.718;12.912;2022-11-04T19:48:29;1.27;;;1.10;;
41275;SDS011;27010;47.718;12.912;2022-11-04T19:51:31;2.30;;;1.30;;
41275;SDS011;27010;47.718;12.912;2022-11-04T19:54:33;2.13;;;1.43;;
41275;SDS011;27010;47.718;12.912;2022-11-04T19:57:36;1.70;;;1.50;;
41275;SDS011;27010;47.718;12.912;2022-11-04T20:00:39;0.80;;;0.67;;
41275;SDS011;27010;47.718;12.912;2022-11-04T20:03:41;0.70;;;0.50;;
41275;SDS011;27010;47.718;12.912;2022-11-04T20:06:45;0.97;;;0.80;;
41275;SDS011;27010;47.718;12.912;2022-11-04T20:09:47;1.13;;;0.80;;
41275;SDS011;27010;47.718;12.912;2022-11-04T20:12:49;0.50;;;0.40;;
41275;SDS011;27010;47.718;12.912;2022-11-04T20:16:11;2.40;;;0.70;;
41275;SDS011;27010;47.718;12.912;2022-11-04T20:19:15;1.07;;;0.80;;
41275;SDS011;27010;47.718;12.912;2022-11-04T20:22:23;1.67;;;0.80;;
41275;SDS011;27010;47.718;12.912;2022-11-04T20:25:25;1.33;;;0.90;;
41275;SDS011;27010;47.718;12.912;2022-11-04T20:28:26;1.37;;;1.13;;
41275;SDS011;27010;47.718;12.912;2022-11-04T20:31:31;1.90;;;1.20;;
41275;SDS011;27010;47.718;12.912;2022-11-04T20:34:34;1.00;;;0.90;;
41275;SDS011;27010;47.718;12.912;2022-11-04T20:37:36;1.63;;;1.13;;
41275;SDS011;27010;47.718;12.912;2022-11-04T20:40:39;1.93;;;1.00;;
41275;SDS011;27010;47.718;12.912;2022-11-04T20:43:41;1.20;;;1.00;;
41275;SDS011;27010;47.718;12.912;2022-11-04T20:46:43;1.40;;;1.30;;
41275;SDS011;27010;47.718;12.912;2022-11-04T20:49:45;1.10;;;0.90;;
41275;SDS011;27010;47.718;12.912;2022-11-04T20:52:49;1.80;;;1.20;;